Time;durP1;ratioP1;P1;durP2;ratioP2;P2;SDS_P1;SDS_P2;PMS_P1;PMS_P2;Temp;Humidity;BMP_temperature;BMP_pressure;BME280_temperature;BME280_humidity;BME280_pressure;Samples;Min_cycle;Max_cycle;Signal;HPM_P1;HPM_P2
2022/05/04 00:00:05;;;;;;;42.30;17.20;;;10.90;99.90;;;;;;5053830;28;20216;-57
2022/05/04 00:02:31;;;;;;;27.90;15.27;;;10.90;99.90;;;;;;5053880;28;20188;-59
2022/05/04 00:04:57;;;;;;;24.93;15.73;;;11.00;99.90;;;;;;5053422;28;20197;-60
2022/05/04 00:07:22;;;;;;;24.17;14.70;;;11.00;99.90;;;;;;5053969;28;20975;-57
2022/05/04 00:09:48;;;;;;;22.77;14.63;;;11.00;99.90;;;;;;5054275;28;20199;-59
2022/05/04 00:12:14;;;;;;;26.20;14.87;;;11.10;99.90;;;;;;5053958;28;20211;-59
2022/05/04 00:14:40;;;;;;;25.37;14.37;;;11.10;99.90;;;;;;5053906;28;20268;-58
2022/05/04 00:17:05;;;;;;;19.83;13.57;;;11.10;99.90;;;;;;5053644;28;20180;-58
2022/05/04 00:19:31;;;;;;;22.20;13.37;;;11.10;99.90;;;;;;5053846;28;20215;-59
2022/05/04 00:21:57;;;;;;;24.07;13.73;;;11.00;99.90;;;;;;5052424;28;20231;-60
2022/05/04 00:24:23;;;;;;;21.63;13.57;;;10.90;99.90;;;;;;5053776;28;20657;-57
2022/05/04 00:26:48;;;;;;;31.83;14.43;;;10.80;99.90;;;;;;5053730;28;20219;-58
2022/05/04 00:29:14;;;;;;;22.57;13.73;;;10.70;99.90;;;;;;5053158;28;20198;-60
2022/05/04 00:31:40;;;;;;;23.63;13.70;;;10.70;99.90;;;;;;5053492;28;20187;-58
2022/05/04 00:34:06;;;;;;;23.60;14.27;;;10.70;99.90;;;;;;5052959;28;20173;-59
2022/05/04 00:36:31;;;;;;;24.83;14.47;;;10.70;99.90;;;;;;5053600;28;20271;-57
2022/05/04 00:38:57;;;;;;;22.13;13.30;;;10.80;99.90;;;;;;5053045;28;20276;-58
2022/05/04 00:41:23;;;;;;;22.73;14.50;;;10.80;99.90;;;;;;5053550;28;20697;-56
2022/05/04 00:43:53;;;;;;;31.17;16.47;;;10.90;99.90;;;;;;5053312;28;20181;-58
2022/05/04 00:46:20;;;;;;;26.97;14.93;;;10.80;99.90;;;;;;5053244;28;20234;-58
2022/05/04 00:48:46;;;;;;;26.63;14.80;;;10.80;99.90;;;;;;5053218;28;20184;-59
2022/05/04 00:51:11;;;;;;;28.10;16.23;;;10.70;99.90;;;;;;5053008;28;20705;-58
2022/05/04 00:53:40;;;;;;;30.47;16.43;;;10.70;99.90;;;;;;5053290;28;20568;-58
2022/05/04 00:56:09;;;;;;;29.97;16.23;;;10.70;99.90;;;;;;5052813;28;20172;-58
2022/05/04 00:58:55;;;;;;;26.17;15.67;;;10.60;99.90;;;;;;5053018;28;20935;-58
2022/05/04 01:01:26;;;;;;;32.23;16.20;;;10.50;99.90;;;;;;5053033;28;20195;-58
2022/05/04 01:03:53;;;;;;;32.47;16.63;;;10.30;99.90;;;;;;5053111;28;20172;-57
2022/05/04 01:06:19;;;;;;;27.90;16.87;;;10.20;99.90;;;;;;5052928;28;20180;-58
2022/05/04 01:08:45;;;;;;;26.43;14.80;;;10.20;99.90;;;;;;5052922;28;20183;-57
2022/05/04 01:11:10;;;;;;;29.63;15.33;;;10.20;99.90;;;;;;5053013;28;20766;-58
2022/05/04 01:13:36;;;;;;;27.17;15.53;;;10.20;99.90;;;;;;5053137;28;20179;-59
2022/05/04 01:16:02;;;;;;;29.40;15.73;;;10.20;99.90;;;;;;5052716;28;20517;-58
2022/05/04 01:18:28;;;;;;;23.97;14.83;;;10.10;99.90;;;;;;5052952;28;20214;-58
2022/05/04 01:20:53;;;;;;;26.37;15.23;;;10.10;99.90;;;;;;5052679;28;20244;-58
2022/05/04 01:23:19;;;;;;;30.83;16.30;;;10.10;99.90;;;;;;5052758;28;20237;-58
2022/05/04 01:25:45;;;;;;;43.53;17.07;;;10.00;99.90;;;;;;5052980;28;20263;-58
2022/05/04 01:28:11;;;;;;;33.60;17.23;;;10.00;99.90;;;;;;5052594;28;20186;-61
2022/05/04 01:30:37;;;;;;;29.07;17.20;;;9.90;99.90;;;;;;5052576;28;20281;-58
2022/05/04 01:33:03;;;;;;;29.67;16.20;;;9.90;99.90;;;;;;5052220;28;20243;-57
2022/05/04 01:35:29;;;;;;;27.73;16.63;;;9.80;99.90;;;;;;5052550;28;20179;-58
2022/05/04 01:37:55;;;;;;;28.50;15.73;;;9.80;99.90;;;;;;5052477;28;20182;-68
2022/05/04 01:40:21;;;;;;;29.53;16.60;;;9.80;99.90;;;;;;5052578;28;20213;-58
2022/05/04 01:42:47;;;;;;;29.83;16.33;;;9.80;99.90;;;;;;5052303;28;20218;-61
2022/05/04 01:45:12;;;;;;;31.67;16.87;;;9.70;99.90;;;;;;5052359;28;20180;-58
2022/05/04 01:47:38;;;;;;;31.07;17.17;;;9.70;99.90;;;;;;5052575;28;20186;-57
2022/05/04 01:50:05;;;;;;;26.33;17.30;;;9.60;99.90;;;;;;5052101;28;20247;-59
2022/05/04 01:52:30;;;;;;;30.20;17.50;;;9.60;99.90;;;;;;5052307;28;20178;-58
2022/05/04 01:54:58;;;;;;;27.77;17.80;;;9.60;99.90;;;;;;5052173;28;20238;-69
2022/05/04 01:57:24;;;;;;;30.37;18.40;;;9.60;99.90;;;;;;5052114;28;20224;-61
2022/05/04 01:59:50;;;;;;;41.73;21.37;;;9.60;99.90;;;;;;5050963;28;20589;-58
2022/05/04 02:02:16;;;;;;;33.17;18.50;;;9.50;99.90;;;;;;5051973;28;20256;-59
2022/05/04 02:04:41;;;;;;;33.03;18.00;;;9.50;99.90;;;;;;5050789;28;20181;-58
2022/05/04 02:07:08;;;;;;;23.93;14.50;;;9.50;99.90;;;;;;5051460;28;20614;-57
2022/05/04 02:09:40;;;;;;;22.13;13.77;;;9.70;99.90;;;;;;5051985;28;20186;-59
2022/05/04 02:12:06;;;;;;;24.00;12.63;;;10.00;99.90;;;;;;5051795;28;20174;-59
2022/05/04 02:14:33;;;;;;;22.03;13.17;;;10.40;99.90;;;;;;5052112;28;20271;-56
2022/05/04 02:17:00;;;;;;;21.00;13.23;;;10.60;99.90;;;;;;5051504;28;20284;-57
2022/05/04 02:19:26;;;;;;;23.30;13.97;;;10.70;99.90;;;;;;5051485;28;20378;-58
2022/05/04 02:21:52;;;;;;;25.37;14.03;;;10.90;99.90;;;;;;5051618;28;20238;-57
2022/05/04 02:24:18;;;;;;;27.20;15.60;;;10.90;99.90;;;;;;5051569;28;20179;-58
2022/05/04 02:26:44;;;;;;;24.33;16.53;;;10.90;99.90;;;;;;5051836;28;20180;-58
2022/05/04 02:29:10;;;;;;;33.87;16.40;;;10.90;99.90;;;;;;5050992;28;20297;-57
2022/05/04 02:31:35;;;;;;;27.10;14.93;;;10.80;99.90;;;;;;5051732;28;20191;-57
2022/05/04 02:34:01;;;;;;;29.93;16.90;;;10.80;99.90;;;;;;5051399;28;20181;-58
2022/05/04 02:39:11;;;;;;;27.30;14.60;;;10.70;99.90;;;;;;5051104;28;20208;-57
2022/05/04 02:41:37;;;;;;;26.83;15.30;;;10.60;99.90;;;;;;5051271;28;20185;-57
2022/05/04 02:44:03;;;;;;;24.30;15.90;;;10.60;99.90;;;;;;5050342;28;20539;-61
2022/05/04 02:46:30;;;;;;;25.70;15.37;;;10.50;99.90;;;;;;5051241;28;20190;-58
2022/05/04 02:48:56;;;;;;;25.37;14.23;;;10.40;99.90;;;;;;5050033;28;20236;-67
2022/05/04 02:51:22;;;;;;;27.67;14.60;;;10.40;99.90;;;;;;5051637;28;20284;-56
2022/05/04 02:53:48;;;;;;;20.83;13.47;;;10.40;99.90;;;;;;5051459;28;20666;-58
2022/05/04 02:56:15;;;;;;;23.33;13.87;;;10.40;99.90;;;;;;5049650;28;20196;-57
2022/05/04 02:58:42;;;;;;;21.50;14.10;;;10.40;99.90;;;;;;5051471;28;20218;-57
2022/05/04 03:03:58;;;;;;;21.43;12.40;;;10.40;99.90;;;;;;5051171;28;20284;-58
2022/05/04 03:06:24;;;;;;;16.87;12.30;;;10.50;99.90;;;;;;5051221;28;20194;-58
2022/05/04 03:08:50;;;;;;;22.80;12.67;;;10.50;99.90;;;;;;5051502;28;20186;-61
2022/05/04 03:14:00;;;;;;;20.97;11.13;;;10.50;99.90;;;;;;5051105;28;20589;-58
2022/05/04 03:16:26;;;;;;;29.63;13.57;;;10.40;99.90;;;;;;5051161;28;20191;-58
2022/05/04 03:18:52;;;;;;;16.47;10.90;;;10.40;99.90;;;;;;5051241;28;20217;-57
2022/05/04 03:21:18;;;;;;;23.00;12.47;;;10.30;99.90;;;;;;5050613;28;20262;-58
2022/05/04 03:23:43;;;;;;;16.97;11.80;;;10.30;99.90;;;;;;5051007;28;20182;-57
2022/05/04 03:26:09;;;;;;;19.27;11.43;;;10.30;99.90;;;;;;5050752;28;20182;-56
2022/05/04 03:28:35;;;;;;;18.40;12.13;;;10.20;99.90;;;;;;5050923;28;20202;-57
2022/05/04 03:31:01;;;;;;;19.63;12.07;;;10.10;99.90;;;;;;5050574;28;20185;-60
2022/05/04 03:33:27;;;;;;;27.87;13.37;;;10.10;99.90;;;;;;5049453;28;20213;-59
2022/05/04 03:35:54;;;;;;;26.67;14.27;;;10.10;99.90;;;;;;5049591;28;20190;-58
2022/05/04 03:38:19;;;;;;;19.37;12.87;;;10.10;99.90;;;;;;5050103;28;20614;-58
2022/05/04 03:40:45;;;;;;;16.40;12.20;;;10.10;99.90;;;;;;5050877;28;20260;-58
2022/05/04 03:43:11;;;;;;;21.93;13.27;;;10.10;99.90;;;;;;5050580;28;20635;-59
2022/05/04 03:45:37;;;;;;;18.13;12.63;;;10.10;99.90;;;;;;5049310;28;20197;-58
2022/05/04 03:48:02;;;;;;;20.50;12.40;;;10.10;99.90;;;;;;5050668;28;20182;-58
2022/05/04 03:50:28;;;;;;;23.30;12.37;;;10.10;99.90;;;;;;5050912;28;20178;-59
2022/05/04 03:52:54;;;;;;;20.03;11.70;;;10.10;99.90;;;;;;5050714;28;20538;-58
2022/05/04 03:55:20;;;;;;;20.07;12.03;;;10.10;99.90;;;;;;5051806;28;20288;-58
2022/05/04 03:57:45;;;;;;;18.73;12.80;;;10.10;99.90;;;;;;5054203;28;20220;-58
2022/05/04 04:00:11;;;;;;;19.30;11.73;;;10.10;99.90;;;;;;5052044;28;20218;-57
2022/05/04 04:02:39;;;;;;;17.80;11.60;;;10.10;99.90;;;;;;5054350;28;20190;-59
2022/05/04 04:05:05;;;;;;;22.33;12.23;;;10.10;99.90;;;;;;5036417;28;20284;-58
2022/05/04 04:07:31;;;;;;;18.97;11.47;;;10.10;99.90;;;;;;5052451;28;20592;-58
2022/05/04 04:09:56;;;;;;;21.30;12.70;;;10.10;99.90;;;;;;5052270;28;20268;-59
2022/05/04 04:12:22;;;;;;;21.13;11.73;;;10.10;99.90;;;;;;5052210;28;20224;-58
2022/05/04 04:14:48;;;;;;;28.77;13.10;;;10.10;99.90;;;;;;5053549;28;20193;-59
2022/05/04 04:17:13;;;;;;;23.17;12.57;;;10.10;99.90;;;;;;5052109;28;20186;-56
2022/05/04 04:19:39;;;;;;;20.27;11.20;;;10.10;99.90;;;;;;5053520;28;20245;-57
2022/05/04 04:22:05;;;;;;;23.47;11.87;;;10.10;99.90;;;;;;5052805;28;20298;-59
2022/05/04 04:24:31;;;;;;;23.33;11.67;;;10.10;99.90;;;;;;5053425;28;20175;-59
2022/05/04 04:26:56;;;;;;;18.03;11.23;;;10.20;99.90;;;;;;5053136;28;20265;-60
2022/05/04 04:29:22;;;;;;;19.20;11.37;;;10.40;99.90;;;;;;5053141;28;20197;-59
2022/05/04 04:31:48;;;;;;;18.33;10.67;;;10.50;99.90;;;;;;5052630;28;20191;-59
2022/05/04 04:34:13;;;;;;;19.33;10.07;;;10.60;99.90;;;;;;5052367;28;20194;-59
2022/05/04 04:36:40;;;;;;;17.13;10.73;;;10.60;99.90;;;;;;5052491;28;20580;-58
2022/05/04 04:39:06;;;;;;;23.20;12.27;;;10.70;99.90;;;;;;5052676;28;20274;-59
2022/05/04 04:41:32;;;;;;;19.50;12.67;;;10.70;99.90;;;;;;5052799;28;20219;-57
2022/05/04 04:43:58;;;;;;;20.77;13.07;;;10.70;99.90;;;;;;5052865;28;20182;-59
2022/05/04 04:46:24;;;;;;;25.30;14.10;;;10.70;99.90;;;;;;5052664;28;20198;-62
2022/05/04 04:48:50;;;;;;;26.97;13.73;;;10.60;99.90;;;;;;5052694;28;20190;-59
2022/05/04 04:51:16;;;;;;;17.50;10.67;;;10.70;99.90;;;;;;5052008;28;20266;-57
2022/05/04 04:53:42;;;;;;;26.03;12.83;;;10.70;99.90;;;;;;5051213;28;20273;-59
2022/05/04 04:56:08;;;;;;;21.80;12.00;;;10.80;99.90;;;;;;5051549;28;20252;-58
2022/05/04 04:58:34;;;;;;;19.57;10.90;;;11.00;99.90;;;;;;5050839;28;20564;-62
2022/05/04 05:00:59;;;;;;;22.17;10.80;;;11.10;99.90;;;;;;5052477;28;20180;-59
2022/05/04 05:03:26;;;;;;;15.33;10.23;;;11.20;99.90;;;;;;5052852;28;20652;-52
2022/05/04 05:05:51;;;;;;;26.50;11.07;;;11.40;99.90;;;;;;5051551;28;20286;-54
2022/05/04 05:08:17;;;;;;;22.67;10.67;;;11.60;99.90;;;;;;5052275;28;20246;-56
2022/05/04 05:10:43;;;;;;;22.83;10.33;;;11.80;99.90;;;;;;5054163;28;20189;-55
2022/05/04 05:13:08;;;;;;;23.03;11.17;;;11.90;99.90;;;;;;5034451;28;20504;-56
2022/05/04 05:18:21;;;;;;;24.17;11.17;;;12.00;99.90;;;;;;5052712;28;20365;-57
2022/05/04 05:20:47;;;;;;;21.97;9.93;;;12.00;99.90;;;;;;5052451;28;20185;-53
2022/05/04 05:23:13;;;;;;;23.17;9.77;;;12.00;99.90;;;;;;5051806;28;20235;-55
2022/05/04 05:25:39;;;;;;;19.40;9.60;;;12.10;99.90;;;;;;5051827;28;20638;-50
2022/05/04 05:28:05;;;;;;;19.37;9.40;;;12.10;99.90;;;;;;5052489;28;20627;-51
2022/05/04 05:30:31;;;;;;;19.70;9.40;;;12.20;99.90;;;;;;5052627;28;20190;-55
2022/05/04 05:32:57;;;;;;;21.70;10.37;;;12.20;99.90;;;;;;5052842;28;20190;-61
2022/05/04 05:35:24;;;;;;;20.97;8.87;;;12.30;99.90;;;;;;5049633;28;20206;-58
2022/05/04 05:37:50;;;;;;;20.80;9.43;;;12.30;99.90;;;;;;5050106;28;20281;-54
2022/05/04 05:40:15;;;;;;;15.40;8.60;;;12.40;99.90;;;;;;5051225;28;20213;-58
2022/05/04 05:42:41;;;;;;;23.60;9.33;;;12.40;99.90;;;;;;5051188;28;20206;-57
2022/05/04 05:45:07;;;;;;;14.83;9.73;;;12.60;99.90;;;;;;5051076;28;20240;-53
2022/05/04 05:47:33;;;;;;;19.93;8.77;;;12.80;99.90;;;;;;5050734;28;20669;-59
2022/05/04 05:49:59;;;;;;;15.03;9.10;;;13.00;99.90;;;;;;5050793;28;20285;-64
2022/05/04 05:52:26;;;;;;;17.27;9.23;;;13.10;99.90;;;;;;5033827;28;20194;-58
2022/05/04 05:54:51;;;;;;;19.43;10.30;;;13.10;99.90;;;;;;5035169;28;20201;-56
2022/05/04 05:57:17;;;;;;;17.67;9.80;;;13.30;99.90;;;;;;5042531;28;20187;-55
2022/05/04 05:59:43;;;;;;;18.77;9.50;;;13.30;99.90;;;;;;5043832;28;20213;-62
2022/05/04 06:02:08;;;;;;;18.90;8.73;;;13.30;99.90;;;;;;5046341;28;20204;-59
2022/05/04 06:04:34;;;;;;;17.77;9.23;;;13.10;99.90;;;;;;5051257;28;20191;-59
2022/05/04 06:07:00;;;;;;;15.17;7.73;;;13.20;99.90;;;;;;5045158;28;20187;-63
2022/05/04 06:09:25;;;;;;;14.50;8.13;;;13.30;99.90;;;;;;5042655;28;20197;-54
2022/05/04 06:11:54;;;;;;;22.13;9.63;;;13.30;99.90;;;;;;5049475;28;20190;-56
2022/05/04 06:14:20;;;;;;;20.10;9.03;;;13.30;99.90;;;;;;5038480;28;20185;-65
2022/05/04 06:16:46;;;;;;;15.33;9.43;;;13.20;99.90;;;;;;5049225;28;20239;-56
2022/05/04 06:19:13;;;;;;;15.77;8.33;;;13.10;99.90;;;;;;5048217;28;20229;-64
2022/05/04 06:21:39;;;;;;;17.93;8.17;;;13.00;99.90;;;;;;5050469;28;20226;-62
2022/05/04 06:24:05;;;;;;;20.10;8.63;;;13.00;99.90;;;;;;5050684;28;20213;-55
2022/05/04 06:26:31;;;;;;;17.93;7.57;;;12.90;99.90;;;;;;5050515;28;20280;-59
2022/05/04 06:28:57;;;;;;;17.60;7.87;;;12.90;99.90;;;;;;5050813;28;20278;-60
2022/05/04 06:34:07;;;;;;;18.03;8.40;;;12.90;99.90;;;;;;5040964;28;20209;-57
2022/05/04 06:36:36;;;;;;;20.30;8.10;;;13.00;99.90;;;;;;5046907;28;20641;-61
2022/05/04 06:39:02;;;;;;;13.60;7.93;;;13.20;99.90;;;;;;5040796;28;20218;-54
2022/05/04 06:41:28;;;;;;;17.47;7.10;;;13.40;99.90;;;;;;5050785;28;20629;-58
2022/05/04 06:43:54;;;;;;;14.60;6.43;;;13.50;99.90;;;;;;5050516;28;20194;-56
2022/05/04 06:46:20;;;;;;;11.60;5.90;;;13.80;99.90;;;;;;5047949;28;20223;-58
2022/05/04 06:48:46;;;;;;;8.50;5.53;;;14.00;99.90;;;;;;5051063;28;20277;-59
2022/05/04 06:51:12;;;;;;;10.87;5.53;;;14.20;99.80;;;;;;5046737;28;20191;-61
2022/05/04 06:53:38;;;;;;;10.93;4.47;;;14.50;98.60;;;;;;5039199;28;20201;-60
2022/05/04 06:56:04;;;;;;;15.27;5.03;;;14.70;98.00;;;;;;5050008;28;20190;-55
2022/05/04 06:58:30;;;;;;;7.80;4.27;;;15.00;97.20;;;;;;5049801;28;20210;-59
2022/05/04 07:00:55;;;;;;;13.80;5.13;;;15.20;96.10;;;;;;5048962;28;20667;-59
2022/05/04 07:03:21;;;;;;;7.60;4.67;;;15.20;96.00;;;;;;5049281;28;20201;-61
2022/05/04 07:05:47;;;;;;;8.63;4.57;;;15.30;95.30;;;;;;5049797;28;20237;-58
2022/05/04 07:08:13;;;;;;;11.37;5.50;;;15.40;95.50;;;;;;5049819;28;20202;-56
2022/05/04 07:10:39;;;;;;;9.67;4.73;;;15.40;95.10;;;;;;5049156;28;20206;-60
2022/05/04 07:13:06;;;;;;;10.87;7.00;;;15.40;95.10;;;;;;5050519;28;20212;-58
2022/05/04 07:15:32;;;;;;;12.93;5.43;;;15.30;95.50;;;;;;5050453;28;20216;-55
2022/05/04 07:17:58;;;;;;;11.03;4.70;;;15.30;95.30;;;;;;5050262;28;20209;-57
2022/05/04 07:20:24;;;;;;;10.90;4.90;;;15.30;94.90;;;;;;5048428;28;20256;-55
2022/05/04 07:22:50;;;;;;;12.70;5.10;;;15.50;94.50;;;;;;5050619;28;20305;-58
2022/05/04 07:25:16;;;;;;;16.77;4.83;;;15.80;94.30;;;;;;5048778;28;20233;-57
2022/05/04 07:27:42;;;;;;;10.60;4.53;;;16.30;94.00;;;;;;5048270;28;20251;-59
2022/05/04 07:30:08;;;;;;;14.43;4.90;;;16.70;92.80;;;;;;5047420;28;20190;-57
2022/05/04 07:32:34;;;;;;;12.17;4.70;;;17.20;92.40;;;;;;5052730;28;20178;-63
2022/05/04 07:35:00;;;;;;;13.37;4.77;;;17.30;91.20;;;;;;5051505;28;20537;-64
2022/05/04 07:37:25;;;;;;;19.60;6.00;;;17.30;91.10;;;;;;5051458;28;20182;-62
2022/05/04 07:42:36;;;;;;;10.10;4.67;;;17.30;91.20;;;;;;5051557;28;20174;-62
2022/05/04 07:45:04;;;;;;;10.20;4.93;;;17.10;91.20;;;;;;5050160;28;20186;-61
2022/05/04 07:47:31;;;;;;;15.03;4.97;;;16.80;91.50;;;;;;5053075;28;20170;-61
2022/05/04 07:49:58;;;;;;;18.03;5.10;;;16.40;91.80;;;;;;5053366;28;20220;-65
2022/05/04 07:52:25;;;;;;;13.23;5.40;;;16.30;92.20;;;;;;5052938;28;20186;-60
2022/05/04 07:54:51;;;;;;;12.43;5.40;;;16.20;92.60;;;;;;5052469;28;20186;-62
2022/05/04 07:57:17;;;;;;;10.70;5.27;;;16.20;92.60;;;;;;5052524;28;20213;-63
2022/05/04 08:04:16;;;;;;;10.93;6.53;;;16.10;93.90;;;;;;5052571;28;20245;-60
2022/05/04 08:05:12;;;;;;;9.57;5.53;;;16.00;94.20;;;;;;5053523;28;20567;-59
2022/05/04 08:07:38;;;;;;;20.83;6.53;;;16.10;93.60;;;;;;5053606;28;20216;-62
2022/05/04 08:10:04;;;;;;;9.23;5.63;;;16.10;93.60;;;;;;5053451;28;20563;-66
2022/05/04 08:12:33;;;;;;;11.03;4.90;;;16.20;92.90;;;;;;5053007;28;20333;-56
2022/05/04 08:14:59;;;;;;;19.60;6.17;;;16.40;92.90;;;;;;5052719;28;20178;-59
2022/05/04 08:17:25;;;;;;;15.00;5.83;;;16.40;92.70;;;;;;5053150;28;20193;-61
2022/05/04 08:19:51;;;;;;;10.33;5.67;;;16.40;92.90;;;;;;5052148;28;20222;-58
2022/05/04 08:22:17;;;;;;;8.40;5.30;;;16.60;92.40;;;;;;5053427;28;20237;-57
2022/05/04 08:24:43;;;;;;;12.80;5.93;;;16.40;92.30;;;;;;5053379;28;20552;-56
2022/05/04 08:27:09;;;;;;;8.90;5.67;;;16.20;92.70;;;;;;5053058;28;20181;-62
2022/05/04 08:29:35;;;;;;;17.33;5.50;;;16.30;92.80;;;;;;5052760;28;20506;-59
2022/05/04 08:32:01;;;;;;;14.20;6.63;;;16.60;93.10;;;;;;5053140;28;20202;-56
2022/05/04 08:34:27;;;;;;;8.70;5.20;;;16.90;92.60;;;;;;5053124;28;20188;-57
2022/05/04 08:36:52;;;;;;;13.10;5.70;;;17.10;92.20;;;;;;5052120;28;20233;-58
2022/05/04 08:39:18;;;;;;;11.47;6.63;;;17.10;92.60;;;;;;5051122;28;20228;-56
2022/05/04 08:41:44;;;;;;;16.67;6.63;;;17.10;92.20;;;;;;5051192;28;20237;-60
2022/05/04 08:44:11;;;;;;;13.87;6.00;;;17.30;92.50;;;;;;5052057;28;20532;-56
2022/05/04 08:46:42;;;;;;;17.07;6.63;;;17.80;91.90;;;;;;5052619;28;20798;-60
2022/05/04 08:49:09;;;;;;;13.90;6.27;;;17.80;91.80;;;;;;5052336;28;20290;-61
2022/05/04 08:51:36;;;;;;;11.20;5.73;;;17.50;91.80;;;;;;5051837;28;20258;-60
2022/05/04 08:54:04;;;;;;;14.17;6.40;;;17.40;92.30;;;;;;5052258;28;20615;-57
2022/05/04 08:56:34;;;;;;;9.63;5.93;;;16.90;92.80;;;;;;5051062;28;20182;-57
2022/05/04 08:59:07;;;;;;;16.40;6.40;;;16.60;93.40;;;;;;5051910;28;20217;-61
2022/05/04 09:01:37;;;;;;;8.77;6.13;;;16.30;94.20;;;;;;5051870;28;20644;-58
2022/05/04 09:04:02;;;;;;;13.63;6.67;;;16.00;94.20;;;;;;5052325;28;20240;-60
2022/05/04 09:06:31;;;;;;;11.33;6.37;;;15.80;94.60;;;;;;5051635;28;20186;-61
2022/05/04 09:09:10;;;;;;;9.23;6.40;;;15.80;95.20;;;;;;5050783;28;20182;-62
2022/05/04 09:11:41;;;;;;;9.47;5.97;;;16.10;95.10;;;;;;5052231;28;20190;-53
2022/05/04 09:14:19;;;;;;;11.33;6.73;;;16.40;94.70;;;;;;5052212;28;20258;-61
2022/05/04 09:16:46;;;;;;;10.57;5.90;;;16.60;94.30;;;;;;5052104;28;20181;-58
2022/05/04 09:19:15;;;;;;;13.50;6.13;;;16.60;93.40;;;;;;5051941;28;20207;-61
2022/05/04 09:21:41;;;;;;;14.30;6.20;;;16.70;93.40;;;;;;5052033;28;20238;-56
2022/05/04 09:24:07;;;;;;;11.23;6.20;;;16.90;93.40;;;;;;5051786;28;20178;-54
2022/05/04 09:26:41;;;;;;;8.20;5.17;;;17.00;92.60;;;;;;5051503;28;20174;-59
2022/05/04 09:29:06;;;;;;;8.00;4.90;;;16.90;91.20;;;;;;5051176;28;20200;-62
2022/05/04 09:31:33;;;;;;;10.07;4.70;;;17.10;91.10;;;;;;5050972;28;20632;-58
2022/05/04 09:34:06;;;;;;;11.83;5.63;;;17.20;90.20;;;;;;5051501;28;20197;-56
2022/05/04 09:45:12;;;;;;;7.83;4.97;;;18.00;83.80;;;;;;5050641;28;20215;-57
2022/05/04 09:47:47;;;;;;;9.73;4.97;;;18.30;84.70;;;;;;5051046;28;20174;-59
2022/05/04 09:50:15;;;;;;;9.67;5.00;;;18.80;84.00;;;;;;5051086;28;20344;-56
2022/05/04 09:52:50;;;;;;;9.33;4.90;;;18.80;83.30;;;;;;5050891;28;20248;-60
2022/05/04 09:55:24;;;;;;;15.07;5.80;;;19.00;83.80;;;;;;5050940;28;20185;-57
2022/05/04 09:57:52;;;;;;;12.63;4.67;;;19.20;83.40;;;;;;5051442;28;20177;-63
2022/05/04 10:00:21;;;;;;;15.90;5.53;;;19.00;83.40;;;;;;5049532;28;20655;-59
2022/05/04 10:02:52;;;;;;;9.65;4.75;;;19.20;82.40;;;;;;5050952;28;20187;-61
2022/05/04 10:05:20;;;;;;;14.48;4.97;;;19.40;80.70;;;;;;5050479;28;20647;-57
2022/05/04 10:07:52;;;;;;;16.90;5.40;;;19.50;79.70;;;;;;5050798;28;20265;-61
2022/05/04 10:10:21;;;;;;;10.60;4.50;;;19.90;78.60;;;;;;5049016;28;20202;-64
2022/05/04 10:12:47;;;;;;;9.48;4.40;;;20.10;76.10;;;;;;5050840;28;20274;-61
2022/05/04 10:15:15;;;;;;;14.80;4.10;;;20.10;73.70;;;;;;5050467;28;20240;-59
2022/05/04 10:18:07;;;;;;;10.30;4.22;;;20.20;73.60;;;;;;5050703;28;20548;-56
2022/05/04 10:20:44;;;;;;;9.38;4.13;;;19.80;73.80;;;;;;5050028;28;20221;-58
2022/05/04 10:23:28;;;;;;;11.85;4.88;;;19.70;74.10;;;;;;5050438;28;20272;-58
2022/05/04 10:25:57;;;;;;;9.65;4.20;;;19.30;72.60;;;;;;5050609;28;20166;-54
2022/05/04 10:28:23;;;;;;;5.50;4.20;;;19.10;72.70;;;;;;5050059;28;20187;-53
2022/05/04 10:30:56;;;;;;;5.97;4.55;;;19.10;73.60;;;;;;5050089;28;20259;-57
2022/05/04 10:33:31;;;;;;;6.30;4.28;;;19.40;73.30;;;;;;5050329;28;20541;-61
2022/05/04 10:35:57;;;;;;;9.23;4.75;;;19.50;72.10;;;;;;5050262;28;20616;-61
2022/05/04 10:38:25;;;;;;;7.53;4.05;;;19.50;73.50;;;;;;5049757;28;20205;-60
2022/05/04 10:41:00;;;;;;;8.70;4.50;;;19.80;72.50;;;;;;5050205;28;20182;-53
2022/05/04 10:43:37;;;;;;;10.50;4.90;;;20.20;71.60;;;;;;5049675;28;20611;-59
2022/05/04 10:46:21;;;;;;;17.98;6.05;;;20.80;72.80;;;;;;5050106;28;20185;-56
2022/05/04 10:49:03;;;;;;;13.70;5.60;;;21.00;72.90;;;;;;5049978;28;20190;-56
2022/05/04 10:51:34;;;;;;;15.35;5.15;;;21.10;72.60;;;;;;5050046;28;20196;-55
2022/05/04 10:54:13;;;;;;;9.10;4.63;;;21.30;71.80;;;;;;5050376;28;20219;-59
2022/05/04 10:56:46;;;;;;;8.00;4.90;;;21.00;67.00;;;;;;5050540;28;20163;-60
2022/05/04 10:59:22;;;;;;;11.40;5.55;;;21.00;68.30;;;;;;5050266;28;20201;-54
2022/05/04 11:01:48;;;;;;;11.43;4.35;;;21.40;69.10;;;;;;5049411;28;20266;-58
2022/05/04 11:04:26;;;;;;;7.80;4.00;;;22.00;66.60;;;;;;5048955;28;20209;-57
2022/05/04 11:06:58;;;;;;;8.65;5.18;;;22.10;65.90;;;;;;5054174;28;20205;-56
2022/05/04 11:09:32;;;;;;;8.23;4.30;;;22.00;63.20;;;;;;5054355;28;20185;-60
2022/05/04 11:12:03;;;;;;;9.70;3.85;;;21.50;64.30;;;;;;5054247;28;20213;-57
2022/05/04 11:14:29;;;;;;;8.60;3.88;;;20.80;63.20;;;;;;5053385;28;20186;-56
2022/05/04 11:16:57;;;;;;;12.25;5.30;;;20.50;64.30;;;;;;5054335;28;20182;-56
2022/05/04 11:19:28;;;;;;;11.55;4.60;;;20.40;65.70;;;;;;5053999;28;20292;-56
2022/05/04 11:21:55;;;;;;;8.00;4.25;;;20.20;65.50;;;;;;5053123;28;20288;-62
2022/05/04 11:24:24;;;;;;;8.57;4.45;;;20.00;65.60;;;;;;5053474;28;20189;-61
2022/05/04 11:26:51;;;;;;;6.85;4.03;;;20.20;67.00;;;;;;5054354;28;20317;-62
2022/05/04 11:29:19;;;;;;;8.20;3.90;;;20.20;66.00;;;;;;5053480;28;20190;-60
2022/05/04 11:31:54;;;;;;;8.00;4.20;;;20.60;63.90;;;;;;5053078;28;20183;-59
2022/05/04 11:34:21;;;;;;;10.38;4.72;;;21.30;61.50;;;;;;5052741;28;20170;-62
2022/05/04 11:36:49;;;;;;;11.95;4.28;;;21.40;60.30;;;;;;5052220;28;20273;-60
2022/05/04 11:39:20;;;;;;;14.50;4.82;;;21.40;60.60;;;;;;5053392;28;20212;-60
2022/05/04 11:41:52;;;;;;;7.57;4.43;;;21.10;61.90;;;;;;5051391;28;20209;-60
2022/05/04 11:44:22;;;;;;;8.10;3.95;;;20.80;61.60;;;;;;5052506;28;20178;-65
2022/05/04 11:46:53;;;;;;;8.32;4.72;;;20.30;62.70;;;;;;5050695;28;20344;-61
2022/05/04 11:49:21;;;;;;;6.78;3.85;;;20.20;62.00;;;;;;5051133;28;20171;-63
2022/05/04 11:51:47;;;;;;;17.05;4.63;;;19.50;60.40;;;;;;5051231;28;20190;-61
2022/05/04 11:54:13;;;;;;;13.35;5.38;;;19.20;63.30;;;;;;5050392;28;20179;-61
2022/05/04 11:56:39;;;;;;;10.45;5.18;;;19.30;66.50;;;;;;5051322;28;20189;-60
2022/05/04 11:59:07;;;;;;;25.90;6.53;;;19.40;67.70;;;;;;5051459;28;20206;-60
2022/05/04 12:01:34;;;;;;;10.38;4.18;;;19.60;68.30;;;;;;5051062;28;20543;-60
2022/05/04 12:04:01;;;;;;;12.75;5.32;;;19.70;67.80;;;;;;5053331;28;20247;-60
2022/05/04 12:06:27;;;;;;;9.00;4.60;;;19.60;67.20;;;;;;5052755;28;20206;-61
2022/05/04 12:08:54;;;;;;;14.68;5.13;;;19.40;68.40;;;;;;5053339;28;20186;-61
2022/05/04 12:11:22;;;;;;;13.70;5.15;;;19.40;69.00;;;;;;5053300;28;20721;-61
2022/05/04 12:13:48;;;;;;;9.48;4.35;;;19.50;68.50;;;;;;5052483;28;20195;-59
2022/05/04 12:16:14;;;;;;;10.48;4.25;;;19.60;68.20;;;;;;5052677;28;20186;-60
2022/05/04 12:18:40;;;;;;;9.20;4.97;;;19.50;68.10;;;;;;5053041;28;20227;-60
2022/05/04 12:21:16;;;;;;;13.27;4.65;;;19.50;68.50;;;;;;5051545;28;20236;-60
2022/05/04 12:23:44;;;;;;;8.88;4.18;;;19.30;68.10;;;;;;5052917;28;20222;-61
2022/05/04 12:26:12;;;;;;;13.30;4.82;;;18.90;69.00;;;;;;5052989;28;20189;-61
2022/05/04 12:28:39;;;;;;;9.27;4.90;;;18.90;69.50;;;;;;5051254;28;20655;-61
2022/05/04 12:33:50;;;;;;;9.60;4.35;;;19.00;68.00;;;;;;5052605;28;20197;-60
2022/05/04 12:36:18;;;;;;;6.47;3.72;;;19.30;66.40;;;;;;5052303;28;20304;-63
2022/05/04 12:38:49;;;;;;;7.38;4.35;;;19.70;65.70;;;;;;5050895;28;20209;-60
2022/05/04 12:41:20;;;;;;;13.02;4.65;;;19.80;64.80;;;;;;5053041;28;20174;-57
2022/05/04 12:43:48;;;;;;;7.05;3.67;;;20.10;64.60;;;;;;5052272;28;20163;-60
2022/05/04 12:46:15;;;;;;;11.45;3.60;;;20.20;63.20;;;;;;5052986;28;20252;-58
2022/05/04 12:48:45;;;;;;;5.57;3.25;;;20.30;62.30;;;;;;5052281;28;20194;-56
2022/05/04 12:51:14;;;;;;;6.18;3.45;;;20.30;62.30;;;;;;5052975;28;20171;-59
2022/05/04 12:53:40;;;;;;;8.82;3.50;;;20.10;62.50;;;;;;5052563;28;20189;-55
2022/05/04 12:58:53;;;;;;;8.85;3.80;;;20.40;62.70;;;;;;5052200;28;20267;-59
2022/05/04 13:01:24;;;;;;;12.43;3.90;;;20.30;61.80;;;;;;5052547;28;20198;-58
2022/05/04 13:03:50;;;;;;;7.13;3.05;;;20.20;62.50;;;;;;5052475;28;20599;-57
2022/05/04 13:06:20;;;;;;;9.90;4.13;;;19.80;62.40;;;;;;5052415;28;20231;-59
2022/05/04 13:08:48;;;;;;;9.05;4.50;;;19.80;64.60;;;;;;5048679;28;20255;-59